createdAt,value
2018-01-28T00:00:07.746Z,42.92
2018-01-28T00:02:34.537Z,35.20
2018-01-28T00:05:01.272Z,38.58
2018-01-28T00:07:28.010Z,46.05
2018-01-28T00:09:54.740Z,39.65
2018-01-28T00:12:21.494Z,37.85
2018-01-28T00:14:48.217Z,41.75
2018-01-28T00:17:14.988Z,43.17
2018-01-28T00:19:41.709Z,41.13
2018-01-28T00:22:08.474Z,31.17
2018-01-28T00:24:35.221Z,40.15
2018-01-28T00:27:01.956Z,40.15
2018-01-28T00:29:28.685Z,39.30
2018-01-28T00:31:55.409Z,41.80
2018-01-28T00:34:22.137Z,35.60
2018-01-28T00:36:48.894Z,38.75
2018-01-28T00:39:15.627Z,37.95
2018-01-28T00:41:42.360Z,40.70
2018-01-28T00:44:09.100Z,37.90
2018-01-28T00:46:35.808Z,38.93
2018-01-28T00:49:02.521Z,40.87
2018-01-28T00:51:29.274Z,44.73
2018-01-28T00:53:56.006Z,39.85
2018-01-28T00:56:22.744Z,40.80
2018-01-28T00:58:49.484Z,44.47
2018-01-28T01:01:16.237Z,39.92
2018-01-28T01:03:42.964Z,36.53
2018-01-28T01:06:09.723Z,39.28
2018-01-28T01:08:36.445Z,38.28
2018-01-28T01:11:03.201Z,39.08
2018-01-28T01:13:29.925Z,41.63
2018-01-28T01:15:56.642Z,40.28
2018-01-28T01:18:23.372Z,47.25
2018-01-28T01:20:50.093Z,44.00
2018-01-28T01:23:16.828Z,45.05
2018-01-28T01:25:43.565Z,45.55
2018-01-28T01:28:10.295Z,44.35
2018-01-28T01:30:37.020Z,34.22
2018-01-28T01:33:03.752Z,42.65
2018-01-28T01:35:30.489Z,48.03
2018-01-28T01:37:57.219Z,37.60
2018-01-28T01:40:23.941Z,44.70
2018-01-28T01:42:50.701Z,46.03
2018-01-28T01:45:17.454Z,41.85
2018-01-28T01:47:44.199Z,44.30
2018-01-28T01:50:10.926Z,43.95
2018-01-28T01:52:37.672Z,45.87
2018-01-28T01:55:04.409Z,44.10
2018-01-28T01:57:31.162Z,38.00
2018-01-28T01:59:57.892Z,41.87
2018-01-28T02:02:24.634Z,44.50
2018-01-28T02:04:51.353Z,45.50
2018-01-28T02:07:18.088Z,45.22
2018-01-28T02:09:44.816Z,41.97
2018-01-28T02:12:11.539Z,43.53
2018-01-28T02:14:38.435Z,40.00
2018-01-28T02:17:05.154Z,42.80
2018-01-28T02:19:31.882Z,51.50
2018-01-28T02:21:58.634Z,43.55
2018-01-28T02:24:25.416Z,44.40
2018-01-28T02:26:52.113Z,39.15
2018-01-28T02:29:18.843Z,45.43
2018-01-28T02:31:45.584Z,44.05
2018-01-28T02:34:12.335Z,41.08
2018-01-28T02:36:39.055Z,48.63
2018-01-28T02:39:05.785Z,42.67
2018-01-28T02:41:32.514Z,48.42
2018-01-28T02:43:59.238Z,44.55
2018-01-28T02:46:25.973Z,48.67
2018-01-28T02:48:52.707Z,50.72
2018-01-28T02:51:19.520Z,45.97
2018-01-28T02:53:46.269Z,48.95
2018-01-28T02:56:13.010Z,49.78
2018-01-28T02:58:39.730Z,49.73
2018-01-28T03:01:06.450Z,44.35
2018-01-28T03:03:33.190Z,45.75
2018-01-28T03:05:59.902Z,40.63
2018-01-28T03:08:26.638Z,41.90
2018-01-28T03:10:53.373Z,49.30
2018-01-28T03:13:20.116Z,41.67
2018-01-28T03:15:46.838Z,42.70
2018-01-28T03:18:13.567Z,44.17
2018-01-28T03:20:40.302Z,39.70
2018-01-28T03:23:07.013Z,38.27
2018-01-28T03:25:33.722Z,43.50
2018-01-28T03:28:00.466Z,42.33
2018-01-28T03:30:27.179Z,42.33
2018-01-28T03:32:53.904Z,38.30
2018-01-28T03:35:20.649Z,42.03
2018-01-28T03:37:47.395Z,43.07
2018-01-28T03:40:14.125Z,47.17
2018-01-28T03:42:40.849Z,40.97
2018-01-28T03:45:07.571Z,47.20
2018-01-28T03:47:34.329Z,37.43
2018-01-28T03:50:01.053Z,42.30
2018-01-28T03:52:27.804Z,44.73
2018-01-28T03:54:54.524Z,43.37
2018-01-28T03:57:21.238Z,39.93
2018-01-28T03:59:47.975Z,49.27
2018-01-28T04:02:14.717Z,39.50
2018-01-28T04:04:41.451Z,40.20
2018-01-28T04:07:08.189Z,36.33
2018-01-28T04:09:34.934Z,48.10
2018-01-28T04:12:01.654Z,39.30
2018-01-28T04:14:28.418Z,48.63
2018-01-28T04:16:55.138Z,46.53
2018-01-28T04:19:21.910Z,43.85
2018-01-28T04:21:48.635Z,44.80
2018-01-28T04:24:15.342Z,39.60
2018-01-28T04:26:42.074Z,49.47
2018-01-28T04:29:08.786Z,43.20
2018-01-28T04:31:35.557Z,40.45
2018-01-28T04:34:02.266Z,40.03
2018-01-28T04:36:28.990Z,46.63
2018-01-28T04:38:55.738Z,49.70
2018-01-28T04:41:22.482Z,41.95
2018-01-28T04:43:49.222Z,45.78
2018-01-28T04:46:15.939Z,41.97
2018-01-28T04:48:42.676Z,48.77
2018-01-28T04:51:09.404Z,46.95
2018-01-28T04:53:36.141Z,41.90
2018-01-28T04:56:02.870Z,47.30
2018-01-28T04:58:29.642Z,39.92
2018-01-28T05:00:56.401Z,37.10
2018-01-28T05:03:23.125Z,43.55
2018-01-28T05:05:49.853Z,42.95
2018-01-28T05:08:16.603Z,52.73
2018-01-28T05:10:43.363Z,39.77
2018-01-28T05:13:10.133Z,40.13
2018-01-28T05:15:36.889Z,42.50
2018-01-28T05:18:03.616Z,47.65
2018-01-28T05:20:30.378Z,39.00
2018-01-28T05:22:57.127Z,43.63
2018-01-28T05:25:23.850Z,42.63
2018-01-28T05:27:50.587Z,48.42
2018-01-28T05:30:17.317Z,42.03
2018-01-28T05:32:44.062Z,47.15
2018-01-28T05:35:10.788Z,42.00
2018-01-28T05:37:37.492Z,42.00
2018-01-28T05:40:04.254Z,46.35
2018-01-28T05:42:30.996Z,39.43
2018-01-28T05:44:57.713Z,44.03
2018-01-28T05:47:24.440Z,42.10
2018-01-28T05:49:51.165Z,46.00
2018-01-28T05:52:17.884Z,38.08
2018-01-28T05:54:44.638Z,43.70
2018-01-28T05:57:11.393Z,41.70
2018-01-28T05:59:38.113Z,41.00
2018-01-28T06:02:04.876Z,45.33
2018-01-28T06:04:31.589Z,43.70
2018-01-28T06:06:58.341Z,40.60
2018-01-28T06:09:25.082Z,50.78
2018-01-28T06:11:51.816Z,43.40
2018-01-28T06:14:18.533Z,45.03
2018-01-28T06:16:45.256Z,48.17
2018-01-28T06:19:12.008Z,41.67
2018-01-28T06:21:38.723Z,46.83
2018-01-28T06:24:05.445Z,43.10
2018-01-28T06:26:32.205Z,47.88
2018-01-28T06:28:59.021Z,46.53
2018-01-28T06:31:25.761Z,45.25
2018-01-28T06:33:52.526Z,49.53
2018-01-28T06:36:19.252Z,48.80
2018-01-28T06:38:45.983Z,42.05
2018-01-28T06:41:12.725Z,49.15
2018-01-28T06:43:39.453Z,44.88
2018-01-28T06:46:06.176Z,43.50
2018-01-28T06:48:32.910Z,41.23
2018-01-28T06:50:59.659Z,46.03
2018-01-28T06:53:26.395Z,44.75
2018-01-28T06:55:53.129Z,39.20
2018-01-28T06:58:19.856Z,42.97
2018-01-28T07:00:46.579Z,42.62
2018-01-28T07:03:13.322Z,42.92
2018-01-28T07:05:40.056Z,42.57
2018-01-28T07:08:06.767Z,46.73
2018-01-28T07:10:33.489Z,50.23
2018-01-28T07:13:00.244Z,43.00
2018-01-28T07:15:26.973Z,46.07
2018-01-28T07:17:53.771Z,54.75
2018-01-28T07:20:21.473Z,46.57
2018-01-28T07:22:48.231Z,51.87
2018-01-28T07:25:14.946Z,50.10
2018-01-28T07:27:41.704Z,47.97
2018-01-28T07:30:08.432Z,48.40
2018-01-28T07:32:35.149Z,42.43
2018-01-28T07:35:01.889Z,49.07
2018-01-28T07:37:28.612Z,47.70
2018-01-28T07:39:55.317Z,50.47
2018-01-28T07:42:22.063Z,49.30
2018-01-28T07:44:48.786Z,46.13
2018-01-28T07:47:15.504Z,40.07
2018-01-28T07:49:42.236Z,53.90
2018-01-28T07:52:08.954Z,43.90
2018-01-28T07:54:35.709Z,44.23
2018-01-28T07:57:02.474Z,40.73
2018-01-28T07:59:29.212Z,44.73
2018-01-28T08:01:55.949Z,45.03
2018-01-28T08:04:22.690Z,48.40
2018-01-28T08:06:49.428Z,39.23
2018-01-28T08:09:16.204Z,38.13
2018-01-28T08:11:49.576Z,49.80
2018-01-28T08:14:31.193Z,39.13
2018-01-28T08:16:57.941Z,48.47
2018-01-28T08:19:24.766Z,40.40
2018-01-28T08:21:51.517Z,36.40
2018-01-28T08:24:19.115Z,84.73
2018-01-28T08:26:51.858Z,46.40
2018-01-28T08:29:19.356Z,39.33
2018-01-28T08:31:46.072Z,34.87
2018-01-28T08:34:12.813Z,41.30
2018-01-28T08:36:39.576Z,39.13
2018-01-28T08:39:06.329Z,34.73
2018-01-28T08:41:33.085Z,36.03
2018-01-28T08:43:59.815Z,37.60
2018-01-28T08:46:26.569Z,39.93
2018-01-28T08:48:53.292Z,34.63
2018-01-28T08:51:20.001Z,39.07
2018-01-28T08:53:46.760Z,42.60
2018-01-28T08:56:13.487Z,42.47
2018-01-28T08:58:40.224Z,39.13
2018-01-28T09:01:06.946Z,36.83
2018-01-28T09:03:34.261Z,34.67
2018-01-28T09:06:01.006Z,36.00
2018-01-28T09:08:27.730Z,44.20
2018-01-28T09:10:54.449Z,47.67
2018-01-28T09:13:21.185Z,39.50
2018-01-28T09:15:47.914Z,40.53
2018-01-28T09:18:14.661Z,39.10
2018-01-28T09:20:41.389Z,39.87
2018-01-28T09:23:08.151Z,43.70
2018-01-28T09:25:34.888Z,40.30
2018-01-28T09:28:01.641Z,46.20
2018-01-28T09:30:28.388Z,38.30
2018-01-28T09:32:55.111Z,45.00
2018-01-28T09:35:21.829Z,40.63
2018-01-28T09:37:48.569Z,39.77
2018-01-28T09:40:15.298Z,42.83
2018-01-28T09:42:42.020Z,43.80
2018-01-28T09:45:08.729Z,39.97
2018-01-28T09:47:35.504Z,51.40
2018-01-28T09:50:02.253Z,41.87
2018-01-28T09:52:28.970Z,39.53
2018-01-28T09:54:55.759Z,39.90
2018-01-28T09:57:22.488Z,41.73
2018-01-28T09:59:49.244Z,40.00
2018-01-28T10:02:15.999Z,39.40
2018-01-28T10:04:42.718Z,40.67
2018-01-28T10:07:09.450Z,38.97
2018-01-28T10:09:36.167Z,38.83
2018-01-28T10:12:02.939Z,39.17
2018-01-28T10:14:29.695Z,40.80
2018-01-28T10:16:56.420Z,39.97
2018-01-28T10:19:23.145Z,38.93
2018-01-28T10:21:49.875Z,46.40
2018-01-28T10:24:16.626Z,40.33
2018-01-28T10:26:43.365Z,38.17
2018-01-28T10:29:10.099Z,39.70
2018-01-28T10:31:36.824Z,41.57
2018-01-28T10:34:03.579Z,44.50
2018-01-28T10:36:30.337Z,43.47
2018-01-28T10:38:57.069Z,40.53
2018-01-28T10:41:23.815Z,44.57
2018-01-28T10:43:50.558Z,39.83
2018-01-28T10:46:17.337Z,46.17
2018-01-28T10:48:44.053Z,53.93
2018-01-28T10:51:10.774Z,36.63
2018-01-28T10:53:37.554Z,47.37
2018-01-28T10:56:04.295Z,45.17
2018-01-28T10:58:31.011Z,42.93
2018-01-28T11:00:57.780Z,46.10
2018-01-28T11:03:24.493Z,44.40
2018-01-28T11:05:51.250Z,44.73
2018-01-28T11:08:18.003Z,44.20
2018-01-28T11:10:44.741Z,47.67
2018-01-28T11:13:11.475Z,43.33
2018-01-28T11:15:38.230Z,51.20
2018-01-28T11:18:04.949Z,44.83
2018-01-28T11:20:31.679Z,44.80
2018-01-28T11:22:58.455Z,48.17
2018-01-28T11:25:25.184Z,45.07
2018-01-28T11:27:51.915Z,50.23
2018-01-28T11:30:18.637Z,47.40
2018-01-28T11:32:45.361Z,54.40
2018-01-28T11:35:12.080Z,48.90
2018-01-28T11:37:38.803Z,56.17
2018-01-28T11:40:05.547Z,47.80
2018-01-28T11:42:32.281Z,47.27
2018-01-28T11:44:59.021Z,53.53
2018-01-28T11:47:25.729Z,57.10
2018-01-28T11:49:52.459Z,49.17
2018-01-28T11:52:19.187Z,50.33
2018-01-28T11:54:45.925Z,48.70
2018-01-28T11:57:12.649Z,45.47
2018-01-28T11:59:39.370Z,50.80
2018-01-28T12:02:06.095Z,49.50
2018-01-28T12:04:32.841Z,52.07
2018-01-28T12:06:59.634Z,50.10
2018-01-28T12:09:26.385Z,48.47
2018-01-28T12:11:53.114Z,48.33
2018-01-28T12:14:19.835Z,44.30
2018-01-28T12:16:46.607Z,53.27
2018-01-28T12:19:13.334Z,54.83
2018-01-28T12:21:40.081Z,50.87
2018-01-28T12:24:06.821Z,50.83
2018-01-28T12:26:33.540Z,48.70
2018-01-28T12:29:00.274Z,46.73
2018-01-28T12:31:27.017Z,46.10
2018-01-28T12:33:53.774Z,50.97
2018-01-28T12:36:20.513Z,47.57
2018-01-28T12:38:47.244Z,51.53
2018-01-28T12:41:13.975Z,53.43
2018-01-28T12:43:40.744Z,55.40
2018-01-28T12:46:07.457Z,54.03
2018-01-28T12:48:34.213Z,49.90
2018-01-28T12:51:00.947Z,49.17
2018-01-28T12:53:27.657Z,47.17
2018-01-28T12:55:54.406Z,54.03
2018-01-28T12:58:21.123Z,45.60
2018-01-28T13:00:47.840Z,49.87
2018-01-28T13:03:14.586Z,51.97
2018-01-28T13:05:41.304Z,50.00
2018-01-28T13:08:08.021Z,52.77
2018-01-28T13:10:34.763Z,55.27
2018-01-28T13:13:01.479Z,48.93
2018-01-28T13:15:28.223Z,49.30
2018-01-28T13:17:54.965Z,48.70
2018-01-28T13:20:21.703Z,47.97
2018-01-28T13:22:48.419Z,45.60
2018-01-28T13:25:15.135Z,45.40
2018-01-28T13:27:41.896Z,49.43
2018-01-28T13:30:08.689Z,45.87
2018-01-28T13:32:35.445Z,47.40
2018-01-28T13:35:02.185Z,47.33
2018-01-28T13:37:28.909Z,53.20
2018-01-28T13:39:55.665Z,49.30
2018-01-28T13:42:22.436Z,50.57
2018-01-28T13:44:49.145Z,45.17
2018-01-28T13:47:15.922Z,46.83
2018-01-28T13:49:42.669Z,49.53
2018-01-28T13:52:09.409Z,46.30
2018-01-28T13:54:36.150Z,42.40
2018-01-28T13:57:02.911Z,48.73
2018-01-28T13:59:29.647Z,52.30
2018-01-28T14:01:56.392Z,53.83
2018-01-28T14:04:23.138Z,52.93
2018-01-28T14:06:49.877Z,50.50
2018-01-28T14:09:16.597Z,46.70
2018-01-28T14:11:43.329Z,51.27
2018-01-28T14:14:10.077Z,49.73
2018-01-28T14:16:36.804Z,55.00
2018-01-28T14:19:03.573Z,50.20
2018-01-28T14:21:30.338Z,47.40
2018-01-28T14:23:57.066Z,44.07
2018-01-28T14:26:23.863Z,48.07
2018-01-28T14:28:50.659Z,55.27
2018-01-28T14:31:17.394Z,51.80
2018-01-28T14:33:44.171Z,44.30
2018-01-28T14:36:10.919Z,42.67
2018-01-28T14:38:37.664Z,48.40
2018-01-28T14:41:04.398Z,39.73
2018-01-28T14:43:31.158Z,48.50
2018-01-28T14:45:57.904Z,41.50
2018-01-28T14:48:24.676Z,43.80
2018-01-28T14:50:51.414Z,42.73
2018-01-28T14:53:18.155Z,46.13
2018-01-28T14:55:44.928Z,44.37
2018-01-28T14:58:11.660Z,45.47
2018-01-28T15:00:38.405Z,44.13
2018-01-28T15:03:05.142Z,44.07
2018-01-28T15:05:31.888Z,43.57
2018-01-28T15:07:58.650Z,44.83
2018-01-28T15:10:25.399Z,48.60
2018-01-28T15:12:52.150Z,46.93
2018-01-28T15:15:18.882Z,49.90
2018-01-28T15:17:45.594Z,49.50
2018-01-28T15:20:12.323Z,53.40
2018-01-28T15:22:39.175Z,45.67
2018-01-28T15:25:05.893Z,53.07
2018-01-28T15:27:32.647Z,50.50
2018-01-28T15:29:59.366Z,45.60
2018-01-28T15:32:26.124Z,52.33
2018-01-28T15:34:52.878Z,51.63
2018-01-28T15:37:19.603Z,52.83
2018-01-28T15:39:46.358Z,56.83
2018-01-28T15:42:13.085Z,54.83
2018-01-28T15:44:39.830Z,52.63
2018-01-28T15:47:06.559Z,54.53
2018-01-28T15:49:33.310Z,53.13
2018-01-28T15:52:00.050Z,56.53
2018-01-28T15:54:26.821Z,59.03
2018-01-28T15:56:53.552Z,54.97
2018-01-28T15:59:20.315Z,49.77
2018-01-28T16:01:47.071Z,57.20
2018-01-28T16:04:13.842Z,51.50
2018-01-28T16:06:40.590Z,53.57
2018-01-28T16:09:07.317Z,51.10
2018-01-28T16:11:34.070Z,53.40
2018-01-28T16:14:00.794Z,50.27
2018-01-28T16:16:27.613Z,49.50
2018-01-28T16:18:54.486Z,60.73
2018-01-28T16:21:21.212Z,56.83
2018-01-28T16:23:47.959Z,58.87
2018-01-28T16:26:14.720Z,60.90
2018-01-28T16:28:41.454Z,55.43
2018-01-28T16:31:08.193Z,64.60
2018-01-28T16:33:34.940Z,60.27
2018-01-28T16:36:01.679Z,59.40
2018-01-28T16:38:28.452Z,63.10
2018-01-28T16:40:55.201Z,58.20
2018-01-28T16:43:22.006Z,57.37
2018-01-28T16:45:48.738Z,65.53
2018-01-28T16:48:15.458Z,58.23
2018-01-28T16:50:42.190Z,57.00
2018-01-28T16:53:08.969Z,60.67
2018-01-28T16:55:35.718Z,57.33
2018-01-28T16:58:02.469Z,55.20
2018-01-28T17:00:29.201Z,62.77
2018-01-28T17:02:55.956Z,64.70
2018-01-28T17:05:22.668Z,62.20
2018-01-28T17:07:49.538Z,64.70
2018-01-28T17:10:16.290Z,67.17
2018-01-28T17:12:43.013Z,67.00
2018-01-28T17:15:09.746Z,64.03
2018-01-28T17:17:36.475Z,63.80
2018-01-28T17:20:03.247Z,66.17
2018-01-28T17:22:29.993Z,64.20
2018-01-28T17:24:56.754Z,64.43
2018-01-28T17:27:23.492Z,70.00
2018-01-28T17:29:50.240Z,64.57
2018-01-28T17:32:16.971Z,70.13
2018-01-28T17:34:43.722Z,76.53
2018-01-28T17:37:10.443Z,69.33
2018-01-28T17:39:37.176Z,77.43
2018-01-28T17:42:03.897Z,69.20
2018-01-28T17:44:30.683Z,71.13
2018-01-28T17:46:57.408Z,66.63
2018-01-28T17:49:24.115Z,65.90
2018-01-28T17:51:50.849Z,71.17
2018-01-28T17:54:17.582Z,67.83
2018-01-28T17:56:44.297Z,59.67
2018-01-28T17:59:11.093Z,64.67
2018-01-28T18:01:37.824Z,64.03
2018-01-28T18:04:04.545Z,71.80
2018-01-28T18:06:31.306Z,68.73
2018-01-28T18:08:58.047Z,69.80
2018-01-28T18:11:24.851Z,68.03
2018-01-28T18:13:51.612Z,69.60
2018-01-28T18:16:18.346Z,67.70
2018-01-28T18:18:45.197Z,67.30
2018-01-28T18:21:11.940Z,81.57
2018-01-28T18:23:38.681Z,85.80
2018-01-28T18:26:05.437Z,71.07
2018-01-28T18:28:32.171Z,91.80
2018-01-28T18:30:58.932Z,80.80
2018-01-28T18:33:25.654Z,66.00
2018-01-28T18:35:52.396Z,68.10
2018-01-28T18:38:19.128Z,91.67
2018-01-28T18:40:45.858Z,77.77
2018-01-28T18:43:12.595Z,69.37
2018-01-28T18:45:39.310Z,120.23
2018-01-28T18:48:06.029Z,86.87
2018-01-28T18:50:32.761Z,96.10
2018-01-28T18:52:59.515Z,104.63
2018-01-28T18:55:26.249Z,76.93
2018-01-28T18:57:52.976Z,69.63
2018-01-28T19:00:19.698Z,73.67
2018-01-28T19:02:46.427Z,90.23
2018-01-28T19:05:13.286Z,95.63
2018-01-28T19:07:39.997Z,77.17
2018-01-28T19:10:06.745Z,75.70
2018-01-28T19:12:33.471Z,62.43
2018-01-28T19:15:00.199Z,73.07
2018-01-28T19:17:26.938Z,78.90
2018-01-28T19:19:53.653Z,79.57
2018-01-28T19:22:20.383Z,65.60
2018-01-28T19:24:47.128Z,82.40
2018-01-28T19:27:13.847Z,92.50
2018-01-28T19:29:40.576Z,92.80
2018-01-28T19:32:07.325Z,102.23
2018-01-28T19:34:34.042Z,77.63
2018-01-28T19:37:00.766Z,67.17
2018-01-28T19:39:27.494Z,67.60
2018-01-28T19:41:54.220Z,75.10
2018-01-28T19:44:20.932Z,98.07
2018-01-28T19:46:47.708Z,74.47
2018-01-28T19:49:16.858Z,81.53
2018-01-28T19:51:43.564Z,65.00
2018-01-28T19:54:10.295Z,95.43
2018-01-28T19:56:37.046Z,66.40
2018-01-28T19:59:03.801Z,65.90
2018-01-28T20:01:32.310Z,64.10
2018-01-28T20:03:59.392Z,59.30
2018-01-28T20:06:26.297Z,60.73
2018-01-28T20:08:53.043Z,55.17
2018-01-28T20:11:19.760Z,62.70
2018-01-28T20:13:46.486Z,79.33
2018-01-28T20:16:13.237Z,65.43
2018-01-28T20:18:39.964Z,79.33
2018-01-28T20:21:06.727Z,67.20
2018-01-28T20:23:33.486Z,74.57
2018-01-28T20:26:00.220Z,68.10
2018-01-28T20:28:26.972Z,58.47
2018-01-28T20:30:53.711Z,62.33
2018-01-28T20:33:20.441Z,74.60
2018-01-28T20:35:47.163Z,71.43
2018-01-28T20:38:13.909Z,65.60
2018-01-28T20:40:40.681Z,63.90
2018-01-28T20:43:07.508Z,62.27
2018-01-28T20:45:34.265Z,59.23
2018-01-28T20:48:01.007Z,57.50
2018-01-28T20:50:27.734Z,71.23
2018-01-28T20:52:54.463Z,47.67
2018-01-28T20:55:23.996Z,56.57
2018-01-28T20:57:50.926Z,57.83
2018-01-28T21:00:22.926Z,68.57
2018-01-28T21:02:49.651Z,53.67
2018-01-28T21:05:16.409Z,54.43
2018-01-28T21:07:43.146Z,55.70
2018-01-28T21:10:09.887Z,54.83
2018-01-28T21:12:36.613Z,58.97
2018-01-28T21:15:03.438Z,54.63
2018-01-28T21:17:30.253Z,53.13
2018-01-28T21:19:56.971Z,64.63
2018-01-28T21:22:23.709Z,61.83
2018-01-28T21:24:50.465Z,82.57
2018-01-28T21:27:17.244Z,67.40
2018-01-28T21:29:44.016Z,85.80
2018-01-28T21:32:10.831Z,62.50
2018-01-28T21:34:37.567Z,64.53
2018-01-28T21:37:04.335Z,70.57
2018-01-28T21:39:31.068Z,59.17
2018-01-28T21:41:57.902Z,85.83
2018-01-28T21:44:24.631Z,85.50
2018-01-28T21:46:51.372Z,56.23
2018-01-28T21:49:18.094Z,132.67
2018-01-28T21:51:44.835Z,118.97
2018-01-28T21:54:11.586Z,134.57
2018-01-28T21:56:38.336Z,84.43
2018-01-28T21:59:05.342Z,75.53
2018-01-28T22:01:32.072Z,58.77
2018-01-28T22:03:58.814Z,62.43
2018-01-28T22:06:25.582Z,52.60
2018-01-28T22:08:52.322Z,48.10
2018-01-28T22:11:19.084Z,49.20
2018-01-28T22:13:45.929Z,49.17
2018-01-28T22:16:12.681Z,46.03
2018-01-28T22:18:39.414Z,50.67
2018-01-28T22:21:06.159Z,50.20
2018-01-28T22:23:32.877Z,40.63
2018-01-28T22:25:59.600Z,44.90
2018-01-28T22:28:26.336Z,48.57
2018-01-28T22:30:53.080Z,49.80
2018-01-28T22:33:19.818Z,46.77
2018-01-28T22:35:46.552Z,48.03
2018-01-28T22:38:13.301Z,49.10
2018-01-28T22:40:40.513Z,47.20
2018-01-28T22:43:07.350Z,48.87
2018-01-28T22:45:34.082Z,49.70
2018-01-28T22:48:00.803Z,47.00
2018-01-28T22:50:27.556Z,44.60
2018-01-28T22:52:54.265Z,44.30
2018-01-28T22:55:20.993Z,48.30
2018-01-28T22:57:47.802Z,41.23
2018-01-28T23:00:14.525Z,42.33
2018-01-28T23:02:41.244Z,39.20
2018-01-28T23:05:07.965Z,42.40
2018-01-28T23:07:34.698Z,44.33
2018-01-28T23:10:01.408Z,43.70
2018-01-28T23:12:28.122Z,40.87
2018-01-28T23:14:54.870Z,37.50
2018-01-28T23:17:21.603Z,41.90
2018-01-28T23:19:48.355Z,40.60
2018-01-28T23:22:15.071Z,38.90
2018-01-28T23:24:41.801Z,42.30
2018-01-28T23:27:08.520Z,37.50
2018-01-28T23:29:35.237Z,43.77
2018-01-28T23:32:02.885Z,44.30
2018-01-28T23:34:29.611Z,42.33
2018-01-28T23:36:56.367Z,44.13
2018-01-28T23:39:23.106Z,36.27
2018-01-28T23:41:49.813Z,38.70
2018-01-28T23:44:16.538Z,41.67
2018-01-28T23:46:43.246Z,41.37
2018-01-28T23:49:09.965Z,39.00
2018-01-28T23:51:36.669Z,44.37
2018-01-28T23:54:03.467Z,42.90
2018-01-28T23:56:30.377Z,40.17
2018-01-28T23:58:57.085Z,37.83
